Time;durP1;ratioP1;P1;durP2;ratioP2;P2;SDS_P1;SDS_P2;PMS_P1;PMS_P2;Temp;Humidity;BMP_temperature;BMP_pressure;BME280_temperature;BME280_humidity;BME280_pressure;Samples;Min_cycle;Max_cycle;Signal;HPM_P1;HPM_P2
2023/06/01 00:00:18;;;;;;;9.03;4.33;;;;;;;;;;769236;181;815831;-69
2023/06/01 00:02:45;;;;;;;7.37;4.07;;;;;;;;;;769618;181;916473;-73
2023/06/01 00:05:10;;;;;;;7.50;4.23;;;;;;;;;;764926;181;919642;-68
2023/06/01 00:07:36;;;;;;;6.40;4.60;;;;;;;;;;768646;182;912447;-70
2023/06/01 00:10:02;;;;;;;5.83;3.93;;;;;;;;;;767611;180;723451;-68
2023/06/01 00:12:28;;;;;;;6.27;4.30;;;;;;;;;;766058;180;878223;-69
2023/06/01 00:14:54;;;;;;;5.57;3.90;;;;;;;;;;761755;181;921134;-71
2023/06/01 00:17:19;;;;;;;5.57;4.00;;;;;;;;;;771797;179;1021007;-68
2023/06/01 00:19:47;;;;;;;5.27;3.90;;;;;;;;;;768705;180;921962;-68
2023/06/01 00:22:11;;;;;;;5.63;4.27;;;;;;;;;;765638;180;1021760;-69
2023/06/01 00:24:37;;;;;;;6.73;3.63;;;;;;;;;;772239;181;917523;-68
2023/06/01 00:27:03;;;;;;;16.20;4.03;;;;;;;;;;768307;181;919314;-69
2023/06/01 00:29:29;;;;;;;5.70;3.50;;;;;;;;;;761910;181;815509;-72
2023/06/01 00:31:55;;;;;;;6.10;3.83;;;;;;;;;;764009;179;920855;-69
2023/06/01 00:34:20;;;;;;;5.43;3.77;;;;;;;;;;741169;184;1021780;-68
2023/06/01 00:36:46;;;;;;;5.20;3.53;;;;;;;;;;766006;181;902947;-69
2023/06/01 00:39:12;;;;;;;6.70;4.10;;;;;;;;;;772171;181;854626;-69
2023/06/01 00:41:38;;;;;;;5.33;3.60;;;;;;;;;;768689;181;921331;-68
2023/06/01 00:44:04;;;;;;;4.97;3.53;;;;;;;;;;764618;181;915483;-68
2023/06/01 00:46:30;;;;;;;5.17;3.47;;;;;;;;;;759603;183;918712;-69
2023/06/01 00:48:56;;;;;;;6.10;4.10;;;;;;;;;;773056;181;919503;-70
2023/06/01 00:51:21;;;;;;;7.10;4.23;;;;;;;;;;759650;181;916391;-68
2023/06/01 00:53:47;;;;;;;7.57;4.30;;;;;;;;;;759680;182;920085;-69
2023/06/01 00:56:13;;;;;;;7.40;4.27;;;;;;;;;;772808;181;920799;-67
2023/06/01 00:58:40;;;;;;;6.23;4.10;;;;;;;;;;767109;182;824592;-68
2023/06/01 01:01:07;;;;;;;5.35;4.00;;;;;;;;;;757779;185;896069;-68
2023/06/01 01:03:32;;;;;;;4.60;3.63;;;;;;;;;;770273;181;921912;-69
2023/06/01 01:06:00;;;;;;;6.13;4.10;;;;;;;;;;767607;181;879294;-69
2023/06/01 01:08:25;;;;;;;6.07;4.03;;;;;;;;;;766308;181;919376;-68
2023/06/01 01:10:56;;;;;;;6.23;4.13;;;;;;;;;;769236;181;918423;-69
2023/06/01 01:13:22;;;;;;;5.33;4.03;;;;;;;;;;768957;181;816389;-69
2023/06/01 01:16:02;;;;;;;5.50;3.93;;;;;;;;;;762176;181;816633;-68
2023/06/01 01:18:32;;;;;;;8.57;5.10;;;;;;;;;;764600;182;938810;-69
2023/06/01 01:20:58;;;;;;;4.83;3.70;;;;;;;;;;757596;181;815358;-68
2023/06/01 01:23:26;;;;;;;5.00;3.40;;;;;;;;;;769958;181;917867;-68
2023/06/01 01:25:52;;;;;;;7.17;3.90;;;;;;;;;;760543;184;809669;-66
2023/06/01 01:28:18;;;;;;;6.90;4.87;;;;;;;;;;759957;184;919221;-70
2023/06/01 01:30:44;;;;;;;5.70;3.90;;;;;;;;;;768343;181;914245;-68
2023/06/01 01:33:10;;;;;;;5.10;3.67;;;;;;;;;;766927;181;918051;-68
2023/06/01 01:35:35;;;;;;;6.30;3.80;;;;;;;;;;766180;181;914590;-66
2023/06/01 01:38:01;;;;;;;8.60;3.10;;;;;;;;;;770457;181;710293;-70
2023/06/01 01:40:27;;;;;;;8.00;4.10;;;;;;;;;;771756;180;814559;-67
2023/06/01 01:42:53;;;;;;;6.97;3.70;;;;;;;;;;760004;181;816247;-69
2023/06/01 01:45:19;;;;;;;5.37;4.10;;;;;;;;;;763664;181;919218;-66
2023/06/01 01:47:50;;;;;;;6.77;4.20;;;;;;;;;;761599;180;1013526;-67
2023/06/01 01:50:16;;;;;;;6.28;4.95;;;;;;;;;;771639;181;918282;-69
2023/06/01 01:52:42;;;;;;;5.67;3.70;;;;;;;;;;757476;184;917066;-67
2023/06/01 01:55:08;;;;;;;5.90;4.10;;;;;;;;;;766195;180;918501;-68
2023/06/01 01:57:34;;;;;;;7.00;3.93;;;;;;;;;;772384;181;925397;-66
2023/06/01 02:00:00;;;;;;;7.50;4.47;;;;;;;;;;756910;180;918620;-66
2023/06/01 02:02:25;;;;;;;5.77;4.20;;;;;;;;;;767175;181;918796;-69
2023/06/01 02:04:51;;;;;;;5.43;3.67;;;;;;;;;;763233;181;918983;-67
2023/06/01 02:07:17;;;;;;;6.77;4.13;;;;;;;;;;762674;181;918724;-67
2023/06/01 02:09:43;;;;;;;5.20;3.80;;;;;;;;;;761660;181;916861;-68
2023/06/01 02:12:09;;;;;;;7.60;4.47;;;;;;;;;;765677;181;921882;-67
2023/06/01 02:14:35;;;;;;;5.57;4.07;;;;;;;;;;772837;181;1024032;-68
2023/06/01 02:17:01;;;;;;;5.40;4.10;;;;;;;;;;766503;181;930070;-68
2023/06/01 02:19:27;;;;;;;4.55;3.20;;;;;;;;;;761240;182;917243;-68
2023/06/01 02:21:52;;;;;;;5.13;3.53;;;;;;;;;;757307;185;919156;-68
2023/06/01 02:24:18;;;;;;;5.10;3.90;;;;;;;;;;758890;181;915712;-66
2023/06/01 02:26:51;;;;;;;5.30;4.68;;;;;;;;;;765084;181;919879;-67
2023/06/01 02:29:14;;;;;;;7.63;4.27;;;;;;;;;;757519;184;955700;-67
2023/06/01 02:31:40;;;;;;;4.60;3.60;;;;;;;;;;771122;181;920305;-67
2023/06/01 02:34:05;;;;;;;7.10;4.60;;;;;;;;;;761308;181;920672;-68
2023/06/01 02:36:31;;;;;;;5.73;3.70;;;;;;;;;;766474;181;919299;-66
2023/06/01 02:38:57;;;;;;;6.18;4.37;;;;;;;;;;767402;182;816580;-67
2023/06/01 02:41:23;;;;;;;6.10;4.33;;;;;;;;;;765891;181;816136;-66
2023/06/01 02:43:50;;;;;;;7.03;4.33;;;;;;;;;;760539;182;918913;-66
2023/06/01 02:46:15;;;;;;;6.78;4.37;;;;;;;;;;767298;181;919614;-66
2023/06/01 02:48:40;;;;;;;5.80;4.40;;;;;;;;;;768271;181;881211;-68
2023/06/01 02:51:06;;;;;;;4.73;3.60;;;;;;;;;;758085;185;921436;-68
2023/06/01 02:53:32;;;;;;;6.85;4.45;;;;;;;;;;772482;181;876180;-69
2023/06/01 02:55:58;;;;;;;5.07;4.17;;;;;;;;;;763346;181;882941;-67
2023/06/01 02:58:25;;;;;;;6.30;4.67;;;;;;;;;;762451;181;919644;-66
2023/06/01 03:00:50;;;;;;;11.10;4.72;;;;;;;;;;758545;181;816711;-68
2023/06/01 03:03:16;;;;;;;8.23;4.03;;;;;;;;;;765942;181;917989;-68
2023/06/01 03:05:42;;;;;;;5.13;3.87;;;;;;;;;;759450;184;917626;-68
2023/06/01 03:08:07;;;;;;;6.47;4.80;;;;;;;;;;764147;180;917399;-66
2023/06/01 03:10:33;;;;;;;7.30;4.27;;;;;;;;;;767269;180;848272;-66
2023/06/01 03:12:59;;;;;;;5.67;4.20;;;;;;;;;;766025;181;918952;-68
2023/06/01 03:15:27;;;;;;;5.47;4.37;;;;;;;;;;756460;183;920153;-70
2023/06/01 03:17:51;;;;;;;9.07;3.90;;;;;;;;;;766811;181;918879;-68
2023/06/01 03:20:16;;;;;;;6.20;4.90;;;;;;;;;;769487;181;924013;-66
2023/06/01 03:22:42;;;;;;;11.43;5.40;;;;;;;;;;765273;181;919524;-68
2023/06/01 03:25:08;;;;;;;6.78;4.60;;;;;;;;;;765478;181;918895;-66
2023/06/01 03:27:34;;;;;;;7.70;4.63;;;;;;;;;;756389;184;926318;-66
2023/06/01 03:30:01;;;;;;;9.00;5.00;;;;;;;;;;758067;185;917072;-68
2023/06/01 03:32:26;;;;;;;6.43;4.63;;;;;;;;;;765464;181;919464;-68
2023/06/01 03:34:52;;;;;;;9.60;5.30;;;;;;;;;;755618;184;915267;-68
2023/06/01 03:37:17;;;;;;;7.17;4.80;;;;;;;;;;767538;181;916387;-65
2023/06/01 03:39:43;;;;;;;7.10;4.90;;;;;;;;;;766176;181;912887;-66
2023/06/01 03:42:09;;;;;;;10.43;5.93;;;;;;;;;;773269;181;918525;-69
2023/06/01 03:44:35;;;;;;;7.67;5.87;;;;;;;;;;757963;181;971891;-68
2023/06/01 03:47:01;;;;;;;9.40;5.75;;;;;;;;;;753058;181;870408;-66
2023/06/01 03:49:27;;;;;;;7.97;5.77;;;;;;;;;;764361;180;874426;-68
2023/06/01 03:51:52;;;;;;;12.50;5.93;;;;;;;;;;755658;184;919303;-65
2023/06/01 03:54:18;;;;;;;6.77;5.67;;;;;;;;;;772589;180;917751;-68
2023/06/01 03:56:44;;;;;;;10.33;6.23;;;;;;;;;;768686;181;909198;-66
2023/06/01 03:59:10;;;;;;;12.03;6.17;;;;;;;;;;769116;181;919280;-66
2023/06/01 04:01:39;;;;;;;14.93;6.60;;;;;;;;;;760050;181;1020853;-66
2023/06/01 04:04:04;;;;;;;7.63;6.83;;;;;;;;;;762591;181;1022002;-67
2023/06/01 04:06:29;;;;;;;18.37;8.60;;;;;;;;;;771324;181;919565;-65
2023/06/01 04:08:58;;;;;;;13.90;8.67;;;;;;;;;;770284;181;817045;-67
2023/06/01 04:11:22;;;;;;;14.30;10.00;;;;;;;;;;767722;181;918251;-69
2023/06/01 04:13:47;;;;;;;11.27;8.90;;;;;;;;;;763477;181;1224962;-66
2023/06/01 04:16:13;;;;;;;13.60;8.30;;;;;;;;;;780101;178;918705;-69
2023/06/01 04:18:39;;;;;;;13.73;8.93;;;;;;;;;;764672;181;918039;-68
2023/06/01 04:21:06;;;;;;;11.63;8.70;;;;;;;;;;762950;181;917801;-69
2023/06/01 04:23:30;;;;;;;19.33;9.27;;;;;;;;;;758866;184;858163;-69
2023/06/01 04:25:59;;;;;;;13.67;10.33;;;;;;;;;;753464;181;918488;-66
2023/06/01 04:28:24;;;;;;;12.90;8.90;;;;;;;;;;764098;181;1022078;-66
2023/06/01 04:30:49;;;;;;;12.70;9.70;;;;;;;;;;770779;181;912714;-69
2023/06/01 04:33:14;;;;;;;15.67;8.70;;;;;;;;;;769281;181;919390;-66
2023/06/01 04:35:40;;;;;;;11.23;8.67;;;;;;;;;;768319;181;918618;-66
2023/06/01 04:38:05;;;;;;;11.13;8.50;;;;;;;;;;773467;180;920144;-66
2023/06/01 04:40:32;;;;;;;15.53;7.27;;;;;;;;;;737609;185;1022594;-66
2023/06/01 04:42:57;;;;;;;10.37;6.87;;;;;;;;;;766117;181;817803;-70
2023/06/01 04:45:23;;;;;;;11.20;7.40;;;;;;;;;;764451;181;919057;-68
2023/06/01 04:47:49;;;;;;;11.10;6.20;;;;;;;;;;766397;181;920363;-65
2023/06/01 04:50:16;;;;;;;9.50;7.17;;;;;;;;;;767331;180;925364;-67
2023/06/01 04:52:41;;;;;;;14.17;5.93;;;;;;;;;;763425;180;814241;-68
2023/06/01 04:55:07;;;;;;;8.30;6.57;;;;;;;;;;771805;181;883907;-66
2023/06/01 04:57:35;;;;;;;9.20;6.10;;;;;;;;;;769925;181;913888;-67
2023/06/01 05:00:00;;;;;;;11.57;5.97;;;;;;;;;;768571;181;917002;-68
2023/06/01 05:02:26;;;;;;;10.23;5.50;;;;;;;;;;771677;181;814819;-67
2023/06/01 05:04:52;;;;;;;6.57;5.60;;;;;;;;;;758529;184;916700;-67
2023/06/01 05:07:18;;;;;;;11.20;6.47;;;;;;;;;;760853;181;901687;-67
2023/06/01 05:09:44;;;;;;;9.33;6.53;;;;;;;;;;764077;180;821307;-66
2023/06/01 05:12:10;;;;;;;8.80;5.63;;;;;;;;;;762860;185;908561;-68
2023/06/01 05:14:36;;;;;;;10.50;6.10;;;;;;;;;;770048;181;952927;-68
2023/06/01 05:17:01;;;;;;;10.90;5.70;;;;;;;;;;767227;180;908193;-65
2023/06/01 05:19:27;;;;;;;8.97;6.40;;;;;;;;;;771413;181;918023;-66
2023/06/01 05:21:53;;;;;;;9.80;5.50;;;;;;;;;;766772;181;917685;-69
2023/06/01 05:24:19;;;;;;;10.43;6.40;;;;;;;;;;762678;181;918844;-69
2023/06/01 05:26:45;;;;;;;7.57;5.53;;;;;;;;;;762131;182;919713;-68
2023/06/01 05:29:11;;;;;;;14.23;6.30;;;;;;;;;;753586;182;919490;-69
2023/06/01 05:31:36;;;;;;;7.78;4.93;;;;;;;;;;751184;183;921981;-69
2023/06/01 05:34:02;;;;;;;7.00;5.00;;;;;;;;;;753706;184;866362;-65
2023/06/01 05:36:28;;;;;;;9.00;5.47;;;;;;;;;;760281;183;915935;-64
2023/06/01 05:38:54;;;;;;;8.33;5.00;;;;;;;;;;754297;184;914235;-64
2023/06/01 05:41:20;;;;;;;10.40;5.33;;;;;;;;;;752983;184;919355;-65
2023/06/01 05:43:46;;;;;;;8.10;6.20;;;;;;;;;;758639;184;922500;-65
2023/06/01 05:46:11;;;;;;;6.87;4.47;;;;;;;;;;755950;184;918694;-67
2023/06/01 05:48:37;;;;;;;7.30;5.30;;;;;;;;;;751138;183;927935;-65
2023/06/01 05:51:03;;;;;;;14.47;4.80;;;;;;;;;;755928;183;850783;-67
2023/06/01 05:53:29;;;;;;;8.80;5.37;;;;;;;;;;755866;184;850973;-67
2023/06/01 05:55:55;;;;;;;13.63;5.00;;;;;;;;;;752649;183;919196;-68
2023/06/01 05:58:22;;;;;;;9.97;5.13;;;;;;;;;;755475;184;919317;-67
2023/06/01 06:00:47;;;;;;;18.00;5.50;;;;;;;;;;745778;183;886489;-65
2023/06/01 06:03:13;;;;;;;7.57;4.60;;;;;;;;;;755215;183;817556;-66
2023/06/01 06:05:38;;;;;;;11.45;5.65;;;;;;;;;;751252;183;919381;-65
2023/06/01 06:08:04;;;;;;;10.83;4.47;;;;;;;;;;760468;183;918947;-66
2023/06/01 06:10:30;;;;;;;8.33;4.47;;;;;;;;;;753472;184;917520;-68
2023/06/01 06:12:56;;;;;;;9.73;4.77;;;;;;;;;;755870;183;918533;-68
2023/06/01 06:15:22;;;;;;;9.33;4.80;;;;;;;;;;762899;183;845935;-67
2023/06/01 06:17:48;;;;;;;8.37;5.00;;;;;;;;;;758663;183;819528;-67
2023/06/01 06:20:15;;;;;;;7.90;4.27;;;;;;;;;;755195;183;816272;-67
2023/06/01 06:22:39;;;;;;;8.80;5.07;;;;;;;;;;757849;184;903846;-66
2023/06/01 06:25:06;;;;;;;8.10;4.80;;;;;;;;;;770371;180;918830;-65
2023/06/01 06:27:32;;;;;;;7.60;4.57;;;;;;;;;;766057;181;919402;-67
2023/06/01 06:29:58;;;;;;;10.33;4.20;;;;;;;;;;766216;181;919029;-65
2023/06/01 06:32:23;;;;;;;6.00;4.83;;;;;;;;;;774596;181;912267;-67
2023/06/01 06:34:49;;;;;;;7.87;4.53;;;;;;;;;;770737;180;919175;-68
2023/06/01 06:37:15;;;;;;;9.27;4.70;;;;;;;;;;758682;185;919031;-67
2023/06/01 06:39:41;;;;;;;8.27;3.90;;;;;;;;;;768112;181;816605;-67
2023/06/01 06:42:07;;;;;;;12.67;4.90;;;;;;;;;;760700;180;917312;-65
2023/06/01 06:44:33;;;;;;;7.13;3.93;;;;;;;;;;762166;181;919448;-65
2023/06/01 06:47:00;;;;;;;8.85;3.67;;;;;;;;;;766265;181;919642;-66
2023/06/01 06:49:26;;;;;;;9.80;5.10;;;;;;;;;;771304;181;916327;-66
2023/06/01 06:51:51;;;;;;;7.37;3.80;;;;;;;;;;757806;181;919521;-64
2023/06/01 06:54:17;;;;;;;8.13;4.40;;;;;;;;;;768533;180;817809;-67
2023/06/01 06:56:44;;;;;;;5.23;3.37;;;;;;;;;;772661;181;919543;-67
2023/06/01 06:59:09;;;;;;;6.50;3.93;;;;;;;;;;760379;182;919566;-66
2023/06/01 07:01:35;;;;;;;9.98;3.50;;;;;;;;;;760814;181;918993;-67
2023/06/01 07:04:02;;;;;;;9.93;3.70;;;;;;;;;;769415;181;856139;-69
2023/06/01 07:06:28;;;;;;;8.03;3.70;;;;;;;;;;767172;182;808965;-67
2023/06/01 07:08:54;;;;;;;6.50;3.30;;;;;;;;;;760231;182;1021230;-64
2023/06/01 07:11:20;;;;;;;5.10;3.80;;;;;;;;;;759495;181;919216;-64
2023/06/01 07:13:45;;;;;;;8.80;3.60;;;;;;;;;;766911;179;918948;-67
2023/06/01 07:16:11;;;;;;;7.43;3.50;;;;;;;;;;756286;180;915429;-67
2023/06/01 07:18:37;;;;;;;6.70;3.97;;;;;;;;;;767451;180;816241;-66
2023/06/01 07:21:03;;;;;;;10.57;3.97;;;;;;;;;;771959;181;717173;-63
2023/06/01 07:23:30;;;;;;;8.73;3.43;;;;;;;;;;766394;181;852003;-65
2023/06/01 07:25:55;;;;;;;8.37;3.50;;;;;;;;;;766639;178;919448;-65
2023/06/01 07:28:26;;;;;;;6.40;3.97;;;;;;;;;;774152;180;918650;-66
2023/06/01 07:30:47;;;;;;;6.80;3.90;;;;;;;;;;760758;182;918372;-66
2023/06/01 07:33:13;;;;;;;5.33;3.40;;;;;;;;;;765896;181;918925;-67
2023/06/01 07:35:39;;;;;;;6.15;3.37;;;;;;;;;;766130;181;905644;-66
2023/06/01 07:38:07;;;;;;;6.57;3.10;;;;;;;;;;760366;181;916689;-67
2023/06/01 07:40:31;;;;;;;5.13;3.60;;;;;;;;;;760664;181;912039;-64
2023/06/01 07:42:56;;;;;;;6.93;4.83;;;;;;;;;;764098;181;918195;-64
2023/06/01 07:45:23;;;;;;;6.93;3.30;;;;;;;;;;769688;181;823150;-66
2023/06/01 07:47:48;;;;;;;6.93;3.77;;;;;;;;;;766709;181;918032;-64
2023/06/01 07:50:14;;;;;;;7.12;4.25;;;;;;;;;;767685;181;905090;-63
2023/06/01 07:52:41;;;;;;;6.57;4.13;;;;;;;;;;762234;182;915961;-68
2023/06/01 07:55:08;;;;;;;8.83;4.00;;;;;;;;;;765736;181;854760;-67
2023/06/01 07:57:32;;;;;;;5.63;3.50;;;;;;;;;;767818;181;1021663;-67
2023/06/01 07:59:58;;;;;;;7.63;5.47;;;;;;;;;;771143;180;918400;-67
2023/06/01 08:02:25;;;;;;;7.90;3.10;;;;;;;;;;767005;181;919053;-68
2023/06/01 08:04:51;;;;;;;5.83;3.37;;;;;;;;;;768738;180;919849;-66
2023/06/01 08:07:16;;;;;;;6.40;3.43;;;;;;;;;;764244;181;919867;-66
2023/06/01 08:09:42;;;;;;;7.23;3.60;;;;;;;;;;760505;181;920527;-66
2023/06/01 08:12:07;;;;;;;8.13;3.47;;;;;;;;;;755532;183;919483;-64
2023/06/01 08:14:33;;;;;;;5.83;3.10;;;;;;;;;;756627;185;920252;-66
2023/06/01 08:16:59;;;;;;;14.00;3.53;;;;;;;;;;764875;181;814267;-67
2023/06/01 08:19:26;;;;;;;7.17;3.37;;;;;;;;;;763440;180;824492;-68
2023/06/01 08:21:50;;;;;;;6.93;3.43;;;;;;;;;;766109;181;891174;-67
2023/06/01 08:24:17;;;;;;;7.87;3.23;;;;;;;;;;771535;181;872362;-68
2023/06/01 08:26:42;;;;;;;7.50;3.53;;;;;;;;;;755672;182;919033;-68
2023/06/01 08:29:08;;;;;;;5.07;3.07;;;;;;;;;;757825;183;812328;-68
2023/06/01 08:31:34;;;;;;;7.40;3.97;;;;;;;;;;761083;181;1024252;-64
2023/06/01 08:34:00;;;;;;;5.13;2.50;;;;;;;;;;763838;183;918944;-69
2023/06/01 08:36:25;;;;;;;6.60;3.53;;;;;;;;;;758212;180;919362;-69
2023/06/01 08:38:51;;;;;;;4.17;2.73;;;;;;;;;;769572;181;915746;-68
2023/06/01 08:41:18;;;;;;;3.73;2.40;;;;;;;;;;770041;181;918323;-64
2023/06/01 08:43:43;;;;;;;6.83;2.77;;;;;;;;;;767753;181;896183;-68
2023/06/01 08:46:09;;;;;;;7.53;3.30;;;;;;;;;;768298;181;817533;-68
2023/06/01 08:48:35;;;;;;;8.47;3.40;;;;;;;;;;767916;181;873728;-70
2023/06/01 08:51:00;;;;;;;6.53;3.33;;;;;;;;;;762674;181;918335;-65
2023/06/01 08:53:26;;;;;;;8.70;3.55;;;;;;;;;;767569;181;919551;-63
2023/06/01 08:55:52;;;;;;;4.07;2.77;;;;;;;;;;765120;181;867217;-64
2023/06/01 08:58:18;;;;;;;6.77;3.60;;;;;;;;;;765313;181;891172;-65
2023/06/01 09:00:44;;;;;;;11.50;4.83;;;;;;;;;;754521;183;946503;-64
2023/06/01 09:03:10;;;;;;;5.70;3.67;;;;;;;;;;752273;184;815340;-67
2023/06/01 09:05:36;;;;;;;7.50;3.20;;;;;;;;;;756603;183;916741;-64
2023/06/01 09:08:01;;;;;;;5.57;2.90;;;;;;;;;;755687;184;877393;-64
2023/06/01 09:10:27;;;;;;;5.77;3.30;;;;;;;;;;753885;183;919437;-63
2023/06/01 09:12:53;;;;;;;5.97;3.30;;;;;;;;;;764541;181;918553;-64
2023/06/01 09:15:19;;;;;;;8.07;3.40;;;;;;;;;;756633;183;918744;-69
2023/06/01 09:17:47;;;;;;;3.80;2.47;;;;;;;;;;749946;183;920072;-63
2023/06/01 09:20:13;;;;;;;4.97;2.50;;;;;;;;;;761094;181;920470;-64
2023/06/01 09:22:39;;;;;;;5.37;2.80;;;;;;;;;;772462;181;917917;-64
2023/06/01 09:25:05;;;;;;;3.93;2.30;;;;;;;;;;760289;181;919525;-63
2023/06/01 09:27:31;;;;;;;5.13;3.23;;;;;;;;;;765160;182;923261;-69
2023/06/01 09:29:57;;;;;;;4.47;3.23;;;;;;;;;;764001;182;919610;-63
2023/06/01 09:32:22;;;;;;;5.43;2.87;;;;;;;;;;758625;182;918046;-63
2023/06/01 09:34:48;;;;;;;5.00;2.70;;;;;;;;;;757283;182;919932;-64
2023/06/01 09:37:15;;;;;;;10.17;3.67;;;;;;;;;;759582;184;921478;-69
2023/06/01 09:39:40;;;;;;;6.97;3.70;;;;;;;;;;762940;182;856873;-70
2023/06/01 09:42:06;;;;;;;8.15;4.05;;;;;;;;;;768166;181;863878;-64
2023/06/01 09:44:35;;;;;;;5.33;2.70;;;;;;;;;;768664;180;920645;-68
2023/06/01 09:47:01;;;;;;;5.43;3.00;;;;;;;;;;784189;177;916672;-64
2023/06/01 09:49:27;;;;;;;4.33;3.10;;;;;;;;;;764865;181;919413;-69
2023/06/01 09:51:53;;;;;;;7.00;2.90;;;;;;;;;;761987;180;917758;-64
2023/06/01 09:54:22;;;;;;;7.60;3.37;;;;;;;;;;771626;181;888952;-68
2023/06/01 09:56:48;;;;;;;4.40;2.70;;;;;;;;;;761133;181;913644;-69
2023/06/01 09:59:14;;;;;;;5.50;3.00;;;;;;;;;;757039;183;924085;-71
2023/06/01 10:01:40;;;;;;;5.03;2.77;;;;;;;;;;742758;186;918362;-68
2023/06/01 10:04:06;;;;;;;6.23;3.13;;;;;;;;;;746518;187;919021;-68
2023/06/01 10:06:33;;;;;;;5.23;3.30;;;;;;;;;;747697;184;848553;-68
2023/06/01 10:08:57;;;;;;;7.90;3.40;;;;;;;;;;764970;181;921470;-64
2023/06/01 10:11:23;;;;;;;6.50;3.80;;;;;;;;;;765839;181;812322;-70
2023/06/01 10:13:49;;;;;;;6.80;3.30;;;;;;;;;;767700;181;919279;-65
2023/06/01 10:16:15;;;;;;;5.07;2.77;;;;;;;;;;767103;181;918194;-70
2023/06/01 10:18:41;;;;;;;4.83;2.67;;;;;;;;;;771988;180;918983;-65
2023/06/01 10:21:07;;;;;;;4.77;3.00;;;;;;;;;;765127;181;918729;-69
2023/06/01 10:23:32;;;;;;;5.00;3.30;;;;;;;;;;760941;181;919206;-64
2023/06/01 10:25:58;;;;;;;7.33;3.53;;;;;;;;;;771830;180;917609;-69
2023/06/01 10:28:24;;;;;;;7.57;3.03;;;;;;;;;;760706;181;918569;-65
2023/06/01 10:30:56;;;;;;;5.10;2.93;;;;;;;;;;766934;180;919100;-65
2023/06/01 10:33:22;;;;;;;5.33;3.17;;;;;;;;;;767003;181;918232;-71
2023/06/01 10:35:50;;;;;;;10.93;3.17;;;;;;;;;;768501;182;915269;-73
2023/06/01 10:38:17;;;;;;;6.10;3.30;;;;;;;;;;754646;181;921221;-65
2023/06/01 10:40:42;;;;;;;10.33;3.67;;;;;;;;;;767320;181;855983;-73
2023/06/01 10:43:08;;;;;;;7.50;3.63;;;;;;;;;;763493;182;912101;-77
2023/06/01 10:45:37;;;;;;;8.00;3.03;;;;;;;;;;761662;180;816547;-66
2023/06/01 10:48:03;;;;;;;6.23;3.30;;;;;;;;;;757511;181;918878;-67
2023/06/01 10:50:28;;;;;;;5.57;3.07;;;;;;;;;;765561;181;1022157;-71
2023/06/01 10:52:54;;;;;;;7.27;2.90;;;;;;;;;;772378;182;816700;-70
2023/06/01 10:55:20;;;;;;;14.60;5.07;;;;;;;;;;767476;180;816339;-71
2023/06/01 10:57:46;;;;;;;14.30;5.60;;;;;;;;;;768713;180;918192;-73
2023/06/01 11:00:14;;;;;;;7.63;3.23;;;;;;;;;;766553;181;917606;-65
2023/06/01 11:02:46;;;;;;;18.70;4.97;;;;;;;;;;762235;181;813487;-73
2023/06/01 11:05:17;;;;;;;6.93;3.67;;;;;;;;;;742657;184;1123716;-66
2023/06/01 11:07:42;;;;;;;6.50;4.00;;;;;;;;;;772501;180;845991;-66
2023/06/01 11:10:09;;;;;;;5.22;2.70;;;;;;;;;;773291;181;913519;-70
2023/06/01 11:12:42;;;;;;;5.77;3.33;;;;;;;;;;771270;181;914698;-66
2023/06/01 11:15:07;;;;;;;22.87;8.63;;;;;;;;;;763953;180;901637;-70
2023/06/01 11:17:33;;;;;;;9.13;4.80;;;;;;;;;;763128;181;918273;-65
2023/06/01 11:20:00;;;;;;;6.40;3.70;;;;;;;;;;768147;181;939339;-70
2023/06/01 11:22:27;;;;;;;6.30;3.30;;;;;;;;;;768456;182;918593;-70
2023/06/01 11:24:53;;;;;;;14.37;6.07;;;;;;;;;;769081;181;915271;-71
2023/06/01 11:27:18;;;;;;;8.93;3.47;;;;;;;;;;768042;181;921509;-69
2023/06/01 11:29:44;;;;;;;4.30;2.73;;;;;;;;;;764629;181;919432;-70
2023/06/01 11:32:08;;;;;;;8.70;3.47;;;;;;;;;;758784;183;920594;-72
2023/06/01 11:34:37;;;;;;;4.30;2.60;;;;;;;;;;758280;183;770806;-66
2023/06/01 11:37:01;;;;;;;4.07;2.70;;;;;;;;;;766252;181;924732;-70
2023/06/01 11:39:28;;;;;;;5.10;3.10;;;;;;;;;;761718;181;919014;-71
2023/06/01 11:41:52;;;;;;;5.50;3.07;;;;;;;;;;757409;181;918819;-70
2023/06/01 11:44:18;;;;;;;5.50;3.03;;;;;;;;;;755395;184;900019;-65
2023/06/01 11:46:51;;;;;;;6.10;3.03;;;;;;;;;;756980;181;917839;-66
2023/06/01 11:49:16;;;;;;;5.70;3.10;;;;;;;;;;764323;180;908046;-70
2023/06/01 11:51:42;;;;;;;8.60;3.20;;;;;;;;;;765468;181;919202;-65
2023/06/01 11:54:08;;;;;;;11.13;3.40;;;;;;;;;;771313;181;814806;-71
2023/06/01 11:56:34;;;;;;;6.93;2.70;;;;;;;;;;766050;181;924392;-70
2023/06/01 11:59:00;;;;;;;9.80;3.20;;;;;;;;;;767455;181;805606;-65
2023/06/01 12:01:26;;;;;;;5.60;3.30;;;;;;;;;;770399;181;938596;-70
2023/06/01 12:03:51;;;;;;;4.37;3.03;;;;;;;;;;765621;181;917756;-65
2023/06/01 12:06:20;;;;;;;5.13;2.90;;;;;;;;;;764311;181;919632;-66
2023/06/01 12:08:47;;;;;;;4.70;2.87;;;;;;;;;;764609;181;919072;-65
2023/06/01 12:11:12;;;;;;;6.90;2.90;;;;;;;;;;764135;181;874291;-65
2023/06/01 12:13:38;;;;;;;6.20;3.00;;;;;;;;;;771462;180;800526;-71
2023/06/01 12:16:04;;;;;;;6.30;3.30;;;;;;;;;;762424;181;918393;-65
2023/06/01 12:18:30;;;;;;;5.00;2.60;;;;;;;;;;768896;181;811835;-66
2023/06/01 12:20:56;;;;;;;7.13;3.00;;;;;;;;;;752595;184;920940;-65
2023/06/01 12:23:22;;;;;;;4.60;2.67;;;;;;;;;;754090;184;919670;-69
2023/06/01 12:25:50;;;;;;;6.50;2.97;;;;;;;;;;774262;180;918645;-70
2023/06/01 12:28:17;;;;;;;8.97;3.67;;;;;;;;;;763577;181;918664;-70
2023/06/01 12:30:41;;;;;;;5.40;2.97;;;;;;;;;;769680;181;918000;-65
2023/06/01 12:33:07;;;;;;;4.17;2.40;;;;;;;;;;768339;181;816783;-66
2023/06/01 12:35:33;;;;;;;4.37;2.50;;;;;;;;;;770763;181;919260;-70
2023/06/01 12:38:03;;;;;;;4.70;2.77;;;;;;;;;;765533;181;920099;-65
2023/06/01 12:40:29;;;;;;;5.53;3.73;;;;;;;;;;756503;183;1028969;-70
2023/06/01 12:42:55;;;;;;;5.43;2.57;;;;;;;;;;771049;181;918315;-65
2023/06/01 12:45:20;;;;;;;5.33;2.57;;;;;;;;;;764518;181;919625;-71
2023/06/01 12:47:47;;;;;;;6.50;2.90;;;;;;;;;;768218;180;919173;-65
2023/06/01 12:50:13;;;;;;;6.23;2.60;;;;;;;;;;767941;180;816460;-69
2023/06/01 12:52:39;;;;;;;5.50;2.57;;;;;;;;;;762989;178;919276;-66
2023/06/01 12:55:05;;;;;;;7.10;2.90;;;;;;;;;;756925;183;919765;-65
2023/06/01 12:57:31;;;;;;;4.60;2.30;;;;;;;;;;748926;184;914457;-65
2023/06/01 12:59:57;;;;;;;4.87;2.50;;;;;;;;;;774372;181;920648;-72
2023/06/01 13:02:23;;;;;;;4.70;2.50;;;;;;;;;;767372;181;918513;-66
2023/06/01 13:04:48;;;;;;;4.97;2.73;;;;;;;;;;756539;184;916618;-71
2023/06/01 13:07:14;;;;;;;5.63;2.80;;;;;;;;;;769494;181;909161;-67
2023/06/01 13:09:40;;;;;;;10.47;2.57;;;;;;;;;;769201;181;920661;-65
2023/06/01 13:12:06;;;;;;;5.70;3.00;;;;;;;;;;762508;181;830341;-65
2023/06/01 13:14:32;;;;;;;5.47;2.30;;;;;;;;;;765253;180;899148;-66
2023/06/01 13:16:58;;;;;;;5.90;2.70;;;;;;;;;;764171;179;820361;-66
2023/06/01 13:19:25;;;;;;;5.10;2.50;;;;;;;;;;755844;181;918535;-66
2023/06/01 13:21:50;;;;;;;4.80;2.67;;;;;;;;;;766141;181;918888;-71
2023/06/01 13:24:16;;;;;;;4.90;2.57;;;;;;;;;;768834;181;908075;-70
2023/06/01 13:26:42;;;;;;;5.07;2.80;;;;;;;;;;762115;181;919655;-71
2023/06/01 13:29:09;;;;;;;4.27;2.50;;;;;;;;;;757727;184;920870;-66
2023/06/01 13:31:35;;;;;;;4.00;3.13;;;;;;;;;;775133;180;757109;-66
2023/06/01 13:33:59;;;;;;;10.07;2.77;;;;;;;;;;769298;181;915850;-66
2023/06/01 13:36:25;;;;;;;3.67;2.70;;;;;;;;;;761516;181;1299454;-70
2023/06/01 13:38:51;;;;;;;5.30;3.00;;;;;;;;;;769069;181;918095;-67
2023/06/01 13:41:17;;;;;;;5.10;2.70;;;;;;;;;;778059;178;915769;-67
2023/06/01 13:43:43;;;;;;;6.67;3.00;;;;;;;;;;765293;181;916315;-75
2023/06/01 13:46:09;;;;;;;6.40;2.60;;;;;;;;;;766188;180;917177;-71
2023/06/01 13:48:35;;;;;;;5.13;2.47;;;;;;;;;;764676;181;874050;-66
2023/06/01 13:51:01;;;;;;;4.23;2.30;;;;;;;;;;765451;180;919938;-67
2023/06/01 13:53:27;;;;;;;4.80;3.20;;;;;;;;;;767302;180;916392;-72
2023/06/01 13:55:53;;;;;;;4.97;2.43;;;;;;;;;;766553;181;918932;-67
2023/06/01 13:58:18;;;;;;;4.00;2.57;;;;;;;;;;756355;180;919515;-71
2023/06/01 14:00:44;;;;;;;6.30;3.23;;;;;;;;;;763748;180;918008;-67
2023/06/01 14:03:10;;;;;;;4.03;3.00;;;;;;;;;;760974;183;913971;-72
2023/06/01 14:05:36;;;;;;;4.37;2.37;;;;;;;;;;757951;183;924232;-69
2023/06/01 14:08:04;;;;;;;5.53;2.73;;;;;;;;;;763282;180;919283;-73
2023/06/01 14:10:28;;;;;;;4.20;2.87;;;;;;;;;;764499;180;919117;-67
2023/06/01 14:12:54;;;;;;;9.07;3.10;;;;;;;;;;769735;181;915716;-71
2023/06/01 14:15:19;;;;;;;5.00;2.80;;;;;;;;;;767311;181;939224;-67
2023/06/01 14:17:45;;;;;;;8.00;2.70;;;;;;;;;;758094;182;918128;-71